Terminal Aerodrome Forecast
Issued by NWS

Home | Current Version | Previous Version | Text Only | Print | Product List | Glossary On
Versions: 1 2 3 4 5 6 7 8 9 10 11 12
000
FTUS42 KMLB 301700
TAFSUA
TAF
KSUA 301734Z 3018/3118 24006KT P6SM VCSH SCT025 BKN080
     FM301900 11008KT P6SM VCTS SCT035CB SCT060 BKN250
     FM310100 VRB03KT P6SM SCT060 SCT100 SCT250
     FM311400 17006KT P6SM SCT025=

USA.gov is the U.S. government's official web portal to all federal, state and local government web resources and services.